PILOTS ONLINE: 372    ATC ONLINE: 42

KHYA

Barnstable Municipal Boardman Polando Field

Location

IATA HYA
City Hyannis
Country  United States
Latitude 41° 40' 9" N
Longitude 70° 16' 49" W
Elevation 54 ft
Type Medium Airport

Map

Weather

METAR
2014/10/22 13:24
KHYA 221324Z 03013G19KT 1 1/2SM -RA BR OVC004 14/13 A2991 RMK AO2 RAB11 P0000 T01440133
TAF
2014/10/22 12:24
TAF KHYA 221120Z 2212/2312 03012G18KT P6SM OVC006 
     FM221500 03013G25KT P6SM OVC007 
     FM222000 04011KT 6SM -SHRA OVC008 
     FM222300 05013KT 3SM SHRA BR OVC008 
     FM230200 07012KT 3SM SHRA BR OVC006

Runways

06/24 5425 ft / 150 ft
15/33 5252 ft / 150 ft

Outbound flights

Callsign Flying to Pilot ATD/STD ETA Aircraft

Inbound flights

Callsign Flying from Pilot ATD ETA Aircraft